Flight Track Log - Related Links

Times and Time Zones

All times are in EDT time to prevent confusion due to time zone crossing. See the LMO5432 flight status page for this flight to view local times or setup timezone preferences in your user account.

Time Position Orientation Groundspeed Altitude Reporting Facility
EDT Latitude Longitude Course Direction KTS MPH feet Rate Location/Type
Sun 09:03:10 PM 26.6064 -80.9319 140° Southeast 281 323 4,600  Level Miami Center
Sun 09:04:08 PM 26.5433 -80.8717 139° Southeast 283 326 4,100 -379 Descending Miami Center
Sun 09:04:45 PM 26.5128 -80.8406 138° Southeast 260 299 4,000 -97 Descending Miami Center
Sun 09:05:10 PM 26.4906 -80.8167 136° Southeast 279 321 4,000  Level Miami Center
Sun 09:05:46 PM 26.4558 -80.7806 137° Southeast 270 311 4,000  Level Miami Center
Sun 09:06:10 PM 26.4417 -80.7661 138° Southeast 279 321 4,000  Level Miami Center
Sun 09:06:46 PM 26.4033 -80.7208 133° Southeast 277 319 4,000  Level Miami Center
Sun 09:07:10 PM 26.3936 -80.6903 110° East 268 308 4,000  Level Miami Center
Sun 09:07:41 PM 26.3781 -80.6481 112° Southeast 274 315 4,000  Level Miami Center
Sun 09:08:10 PM 26.3661 -80.6200 115° Southeast 268 308 4,000 -492 Level Miami Center
Sun 09:08:42 PM 26.3464 -80.5731 115° Southeast 272 313 3,500 -900 Descending Miami Center
Sun 09:09:10 PM 26.3328 -80.5356 112° Southeast 268 308 3,100 -492 Descending Miami Center
Sun 09:09:43 PM 26.3150 -80.4956 116° Southeast 274 315 3,000 -100 Descending Miami Center
Sun 09:10:10 PM 26.3053 -80.4650 110° East 273 314 3,000  Level Miami Center
Sun 09:10:44 PM 26.2836 -80.4158 116° Southeast 272 313 3,000  Level Miami Center
Sun 09:11:10 PM 26.2739 -80.3831 108° East 273 314 3,000 -393 Level Miami Center
Sun 09:11:45 PM 26.2603 -80.3456 112° Southeast 251 289 2,600 -800 Descending Miami Center
Sun 09:12:10 PM 26.2589 -80.3156 93° East 255 293 2,200 -885 Descending Miami Center
Sun 09:12:46 PM 26.2306 -80.2731 127° Southeast 242 278 1,700 -700 Descending Miami Center
Sun 09:13:10 PM 26.2289 -80.2497 95° East 248 285 1,500 -393 Descending Miami Center
Sun 09:13:47 PM 26.2239 -80.2056 97° East 197 227 1,300 -309 Descending Miami Center
Sun 09:14:47 PM 26.2294 -80.1433 84° East 208 239 1,000 -248 Descending Miami Center
Sun 09:15:48 PM 26.2072 -80.1056 123° Southeast 170 196 800 -328 Descending Miami Center
Sun 09:16:55 PM 26.1978 -80.1494 257° West 123 142 300 -448 Descending Miami Center
Sun 09:18:00 PM 26.1973 -80.1707 227° Southwest  Level Estimated
Sun 09:25:00 PM 26.1973 -80.1707 114° Southeast  Level Estimated

Login

Don't have an account? Register now (free) for customized features, flight alerts, and more!